Time;durP1;ratioP1;P1;durP2;ratioP2;P2;SDS_P1;SDS_P2;PMS_P1;PMS_P2;Temp;Humidity;BMP_temperature;BMP_pressure;BME280_temperature;BME280_humidity;BME280_pressure;Samples;Min_cycle;Max_cycle;Signal;HPM_P1;HPM_P2
2023/03/12 00:01:38;;;;;;;5.28;1.35;;;;;;;;;;5035069;28;20029;-69
2023/03/12 00:04:05;;;;;;;10.02;1.40;;;;;;;;;;5034751;28;20025;-69
2023/03/12 00:06:32;;;;;;;10.68;1.80;;;;;;;;;;5035162;28;20025;-69
2023/03/12 00:09:00;;;;;;;6.57;1.38;;;;;;;;;;5034661;28;20024;-70
2023/03/12 00:11:27;;;;;;;11.15;1.92;;;;;;;;;;5034702;28;20436;-69
2023/03/12 00:13:55;;;;;;;6.38;1.63;;;;;;;;;;5034687;28;20033;-69
2023/03/12 00:16:21;;;;;;;10.20;1.88;;;;;;;;;;5034632;28;20021;-70
2023/03/12 00:18:51;;;;;;;6.25;1.50;;;;;;;;;;5066210;28;20029;-69
2023/03/12 00:21:17;;;;;;;8.60;1.88;;;;;;;;;;5034937;28;20040;-69
2023/03/12 00:23:43;;;;;;;6.50;1.75;;;;;;;;;;5034395;28;20025;-70
2023/03/12 00:26:11;;;;;;;6.10;1.67;;;;;;;;;;5034406;28;20021;-70
2023/03/12 00:28:38;;;;;;;8.40;1.73;;;;;;;;;;5034537;28;20025;-70
2023/03/12 00:31:13;;;;;;;10.50;2.03;;;;;;;;;;5034383;28;20407;-69
2023/03/12 00:33:40;;;;;;;12.50;2.25;;;;;;;;;;5034028;28;20045;-69
2023/03/12 00:36:06;;;;;;;8.73;2.28;;;;;;;;;;5034249;28;20014;-69
2023/03/12 00:38:32;;;;;;;8.82;1.85;;;;;;;;;;5034385;28;20051;-69
2023/03/12 00:40:59;;;;;;;9.35;1.77;;;;;;;;;;5034306;28;20022;-70
2023/03/12 00:43:25;;;;;;;8.52;2.15;;;;;;;;;;5034035;28;20520;-70
2023/03/12 00:45:53;;;;;;;12.90;2.17;;;;;;;;;;5034259;28;20080;-70
2023/03/12 00:48:19;;;;;;;10.35;2.28;;;;;;;;;;5033591;28;20474;-69
2023/03/12 00:50:45;;;;;;;11.63;2.20;;;;;;;;;;5034176;28;20037;-70
2023/03/12 00:53:12;;;;;;;12.13;1.80;;;;;;;;;;5034254;28;20026;-70
2023/03/12 00:55:38;;;;;;;8.25;1.67;;;;;;;;;;5034353;28;20036;-69
2023/03/12 00:58:04;;;;;;;8.50;1.75;;;;;;;;;;5034494;28;20031;-70
2023/03/12 01:00:31;;;;;;;7.70;2.00;;;;;;;;;;5034046;28;20017;-69
2023/03/12 01:02:57;;;;;;;5.93;1.75;;;;;;;;;;5033534;28;20075;-69
2023/03/12 01:05:24;;;;;;;7.25;1.67;;;;;;;;;;5033988;28;20028;-69
2023/03/12 01:07:50;;;;;;;7.95;2.03;;;;;;;;;;5034230;28;20035;-69
2023/03/12 01:10:18;;;;;;;12.35;2.08;;;;;;;;;;5033916;28;20505;-69
2023/03/12 01:12:45;;;;;;;7.32;1.75;;;;;;;;;;5033948;28;20033;-70
2023/03/12 01:15:15;;;;;;;8.35;2.15;;;;;;;;;;5034414;28;20028;-69
2023/03/12 01:17:42;;;;;;;9.32;1.80;;;;;;;;;;5033553;28;20393;-69
2023/03/12 01:20:08;;;;;;;7.30;1.60;;;;;;;;;;5034100;28;20029;-70
2023/03/12 01:22:35;;;;;;;7.68;1.80;;;;;;;;;;5033802;28;20022;-69
2023/03/12 01:25:01;;;;;;;9.65;2.00;;;;;;;;;;5033391;28;20049;-70
2023/03/12 01:27:28;;;;;;;6.13;1.65;;;;;;;;;;5033857;28;20067;-70
2023/03/12 01:29:54;;;;;;;5.63;1.70;;;;;;;;;;5032975;28;20394;-69
2023/03/12 01:32:21;;;;;;;13.18;2.03;;;;;;;;;;5033183;28;20041;-70
2023/03/12 01:34:47;;;;;;;13.30;1.90;;;;;;;;;;5033266;28;20020;-70
2023/03/12 01:37:13;;;;;;;9.02;1.88;;;;;;;;;;5033439;28;20079;-69
2023/03/12 01:39:40;;;;;;;10.07;1.75;;;;;;;;;;5033183;28;20094;-70
2023/03/12 01:42:06;;;;;;;11.10;1.92;;;;;;;;;;5033927;28;20022;-70
2023/03/12 01:45:08;;;;;;;9.50;2.17;;;;;;;;;;5033394;28;20063;-69
2023/03/12 01:47:34;;;;;;;14.48;1.90;;;;;;;;;;5027710;28;20037;-69
2023/03/12 01:50:02;;;;;;;11.90;2.13;;;;;;;;;;5011140;28;20034;-70
2023/03/12 01:52:32;;;;;;;10.90;2.67;;;;;;;;;;5011351;28;20037;-69
2023/03/12 01:55:06;;;;;;;10.18;2.60;;;;;;;;;;5011635;28;20033;-69
2023/03/12 01:57:35;;;;;;;13.20;3.05;;;;;;;;;;5011144;28;20034;-69
2023/03/12 02:00:06;;;;;;;8.88;2.55;;;;;;;;;;5010363;28;20026;-70
2023/03/12 02:02:33;;;;;;;10.15;2.30;;;;;;;;;;5011158;28;20030;-69
2023/03/12 02:05:04;;;;;;;16.08;3.30;;;;;;;;;;5010804;28;20030;-70
2023/03/12 02:07:30;;;;;;;13.05;3.08;;;;;;;;;;5010929;28;20042;-70
2023/03/12 02:09:57;;;;;;;12.85;2.65;;;;;;;;;;5010748;28;20518;-70
2023/03/12 02:12:23;;;;;;;10.90;2.78;;;;;;;;;;5010473;28;20127;-69
2023/03/12 02:14:49;;;;;;;15.35;2.95;;;;;;;;;;5010279;28;20034;-69
2023/03/12 02:17:16;;;;;;;9.98;2.47;;;;;;;;;;5010473;28;20040;-69
2023/03/12 02:19:42;;;;;;;9.85;2.28;;;;;;;;;;5010847;28;20030;-69
2023/03/12 02:22:09;;;;;;;11.35;2.10;;;;;;;;;;5027252;28;20077;-70
2023/03/12 02:24:48;;;;;;;10.65;2.08;;;;;;;;;;5032347;28;20036;-69
2023/03/12 02:27:15;;;;;;;8.70;1.77;;;;;;;;;;5032359;28;20029;-69
2023/03/12 02:29:43;;;;;;;10.23;1.77;;;;;;;;;;5032065;28;20090;-69
2023/03/12 02:32:10;;;;;;;7.95;1.80;;;;;;;;;;5031461;28;20033;-70
2023/03/12 02:34:36;;;;;;;10.48;1.83;;;;;;;;;;5032386;28;20032;-69
2023/03/12 02:37:03;;;;;;;9.40;1.60;;;;;;;;;;5032416;28;20025;-70
2023/03/12 02:39:29;;;;;;;8.75;1.77;;;;;;;;;;5032418;28;20030;-70
2023/03/12 02:41:56;;;;;;;13.00;2.00;;;;;;;;;;5032630;28;20022;-70
2023/03/12 02:44:32;;;;;;;10.57;2.25;;;;;;;;;;5031717;28;20402;-70
2023/03/12 02:46:59;;;;;;;11.52;1.42;;;;;;;;;;5032379;28;20051;-69
2023/03/12 02:49:27;;;;;;;10.48;1.98;;;;;;;;;;5032767;28;20029;-69
2023/03/12 02:51:54;;;;;;;13.63;1.80;;;;;;;;;;5032300;28;20033;-70
2023/03/12 02:54:21;;;;;;;7.88;1.85;;;;;;;;;;5031957;28;20037;-70
2023/03/12 02:56:48;;;;;;;7.47;1.40;;;;;;;;;;5032272;28;20032;-70
2023/03/12 02:59:15;;;;;;;12.20;2.13;;;;;;;;;;5032028;28;20497;-69
2023/03/12 03:01:41;;;;;;;9.27;1.65;;;;;;;;;;5031967;28;20022;-70
2023/03/12 03:04:09;;;;;;;11.20;1.90;;;;;;;;;;5032914;28;20044;-69
2023/03/12 03:06:37;;;;;;;8.65;1.58;;;;;;;;;;5033167;28;20067;-69
2023/03/12 03:09:04;;;;;;;15.70;2.33;;;;;;;;;;5032196;28;20051;-69
2023/03/12 03:11:30;;;;;;;14.27;1.63;;;;;;;;;;5031671;28;20022;-69
2023/03/12 03:13:56;;;;;;;9.48;2.00;;;;;;;;;;5032633;28;20037;-69
2023/03/12 03:16:24;;;;;;;12.63;2.10;;;;;;;;;;5031946;28;20529;-69
2023/03/12 03:18:50;;;;;;;8.88;1.85;;;;;;;;;;5032160;28;20025;-69
2023/03/12 03:21:17;;;;;;;13.18;2.67;;;;;;;;;;5032461;28;20401;-69
2023/03/12 03:23:44;;;;;;;12.90;1.80;;;;;;;;;;5031798;28;20017;-70
2023/03/12 03:26:11;;;;;;;12.93;2.08;;;;;;;;;;5031667;28;20036;-70
2023/03/12 03:28:37;;;;;;;8.95;2.15;;;;;;;;;;5033147;28;20074;-69
2023/03/12 03:31:04;;;;;;;10.25;2.00;;;;;;;;;;5035438;28;20025;-69
2023/03/12 03:33:32;;;;;;;11.32;2.45;;;;;;;;;;5035417;28;20045;-70
2023/03/12 03:35:58;;;;;;;10.55;2.00;;;;;;;;;;5035504;28;20025;-69
2023/03/12 03:38:25;;;;;;;14.25;2.33;;;;;;;;;;5035386;28;20024;-70
2023/03/12 03:40:52;;;;;;;12.05;1.95;;;;;;;;;;5035293;28;20031;-70
2023/03/12 03:43:19;;;;;;;11.73;2.30;;;;;;;;;;5035283;28;20045;-70
2023/03/12 03:45:45;;;;;;;8.18;1.70;;;;;;;;;;5035915;28;20032;-69
2023/03/12 03:48:12;;;;;;;11.52;2.55;;;;;;;;;;5035143;28;20029;-69
2023/03/12 03:50:39;;;;;;;8.95;1.77;;;;;;;;;;5035129;28;20029;-70
2023/03/12 03:53:06;;;;;;;18.95;2.30;;;;;;;;;;5035331;28;20041;-69
2023/03/12 03:55:35;;;;;;;9.85;2.15;;;;;;;;;;5034852;28;20027;-70
2023/03/12 03:58:02;;;;;;;12.13;2.10;;;;;;;;;;5035199;28;20036;-69
2023/03/12 04:00:28;;;;;;;10.93;2.05;;;;;;;;;;5035238;28;20516;-70
2023/03/12 04:02:55;;;;;;;9.80;2.42;;;;;;;;;;5034979;28;20034;-70
2023/03/12 04:05:21;;;;;;;12.88;2.35;;;;;;;;;;5035687;28;20025;-69
2023/03/12 04:07:47;;;;;;;10.60;1.83;;;;;;;;;;5034870;28;20439;-69
2023/03/12 04:10:14;;;;;;;14.73;2.40;;;;;;;;;;5034768;28;20033;-69
2023/03/12 04:12:40;;;;;;;9.23;2.22;;;;;;;;;;5034752;28;20503;-69
2023/03/12 04:15:07;;;;;;;11.68;2.38;;;;;;;;;;5034602;28;20036;-69
2023/03/12 04:17:33;;;;;;;18.38;4.72;;;;;;;;;;5034633;28;20501;-69
2023/03/12 04:19:59;;;;;;;17.95;5.60;;;;;;;;;;5034826;28;20025;-70
2023/03/12 04:22:26;;;;;;;17.88;5.90;;;;;;;;;;5033457;28;20504;-70
2023/03/12 04:24:52;;;;;;;17.15;5.72;;;;;;;;;;5034436;28;20032;-69
2023/03/12 04:27:18;;;;;;;11.68;4.75;;;;;;;;;;5034548;28;20021;-69
2023/03/12 04:29:45;;;;;;;13.60;4.75;;;;;;;;;;5034621;28;20025;-70
2023/03/12 04:32:11;;;;;;;13.98;3.47;;;;;;;;;;5034374;28;20507;-70
2023/03/12 04:34:37;;;;;;;15.98;3.47;;;;;;;;;;5034522;28;20028;-70
2023/03/12 04:37:04;;;;;;;16.42;3.50;;;;;;;;;;5034455;28;20028;-70
2023/03/12 04:39:30;;;;;;;14.90;3.60;;;;;;;;;;5033302;28;20030;-69
2023/03/12 04:41:56;;;;;;;16.02;2.92;;;;;;;;;;5034357;28;20031;-69
2023/03/12 04:44:23;;;;;;;10.65;2.30;;;;;;;;;;5033982;28;20045;-70
2023/03/12 04:46:49;;;;;;;12.63;2.63;;;;;;;;;;5034210;28;20032;-70
2023/03/12 04:49:15;;;;;;;11.88;2.17;;;;;;;;;;5034069;28;20022;-69
2023/03/12 04:51:42;;;;;;;12.80;2.45;;;;;;;;;;5033853;28;20033;-69
2023/03/12 04:54:08;;;;;;;13.23;2.42;;;;;;;;;;5032841;28;20041;-69
2023/03/12 04:56:34;;;;;;;18.88;2.78;;;;;;;;;;5033987;28;20021;-69
2023/03/12 04:59:01;;;;;;;11.55;2.17;;;;;;;;;;5033802;28;20025;-69
2023/03/12 05:01:29;;;;;;;7.13;1.92;;;;;;;;;;5034036;28;20024;-69
2023/03/12 05:03:55;;;;;;;11.60;2.47;;;;;;;;;;5033875;28;20036;-70
2023/03/12 05:06:23;;;;;;;10.88;2.00;;;;;;;;;;5033769;28;20029;-69
2023/03/12 05:08:49;;;;;;;14.73;2.35;;;;;;;;;;5033270;28;20051;-70
2023/03/12 05:11:16;;;;;;;8.73;2.03;;;;;;;;;;5033762;28;20026;-69
2023/03/12 05:13:42;;;;;;;11.40;2.10;;;;;;;;;;5033536;28;20068;-70
2023/03/12 05:16:09;;;;;;;14.15;2.30;;;;;;;;;;5033499;28;20036;-69
2023/03/12 05:18:35;;;;;;;9.38;2.30;;;;;;;;;;5033836;28;20030;-70
2023/03/12 05:21:03;;;;;;;13.60;2.47;;;;;;;;;;5033682;28;20032;-69
2023/03/12 05:23:30;;;;;;;9.82;1.95;;;;;;;;;;5033332;28;20028;-69
2023/03/12 05:25:56;;;;;;;11.40;2.00;;;;;;;;;;5033766;28;20021;-69
2023/03/12 05:28:27;;;;;;;8.95;2.00;;;;;;;;;;5033436;28;20041;-70
2023/03/12 05:30:54;;;;;;;13.77;2.33;;;;;;;;;;5033355;28;20483;-70
2023/03/12 05:33:20;;;;;;;13.05;2.58;;;;;;;;;;5033320;28;20064;-69
2023/03/12 05:35:47;;;;;;;13.98;2.60;;;;;;;;;;5033187;28;20033;-69
2023/03/12 05:38:13;;;;;;;12.95;2.25;;;;;;;;;;5032693;28;20397;-69
2023/03/12 05:40:39;;;;;;;19.17;2.55;;;;;;;;;;5033406;28;20034;-69
2023/03/12 05:43:06;;;;;;;16.35;2.95;;;;;;;;;;5032911;28;20091;-69
2023/03/12 05:45:32;;;;;;;15.38;2.65;;;;;;;;;;5033018;28;20026;-69
2023/03/12 05:47:59;;;;;;;11.18;3.05;;;;;;;;;;5033057;28;20033;-69
2023/03/12 05:50:25;;;;;;;9.93;2.47;;;;;;;;;;5032632;28;20499;-70
2023/03/12 05:52:52;;;;;;;11.20;2.55;;;;;;;;;;5031980;28;20082;-69
2023/03/12 05:55:18;;;;;;;13.18;2.33;;;;;;;;;;5032888;28;20028;-69
2023/03/12 05:57:44;;;;;;;12.43;2.38;;;;;;;;;;5032928;28;20034;-70
2023/03/12 06:00:12;;;;;;;11.73;2.20;;;;;;;;;;5032632;28;20477;-70
2023/03/12 06:02:39;;;;;;;8.05;2.38;;;;;;;;;;5032782;28;20024;-69
2023/03/12 06:05:05;;;;;;;17.20;3.38;;;;;;;;;;5032670;28;20390;-69
2023/03/12 06:07:32;;;;;;;9.95;2.05;;;;;;;;;;5032596;28;20023;-69
2023/03/12 06:09:58;;;;;;;13.18;2.38;;;;;;;;;;5032537;28;20028;-70
2023/03/12 06:12:25;;;;;;;9.32;1.85;;;;;;;;;;5032518;28;20029;-69
2023/03/12 06:14:51;;;;;;;10.75;2.05;;;;;;;;;;5032660;28;20029;-69
2023/03/12 06:17:17;;;;;;;13.15;2.35;;;;;;;;;;5032564;28;20025;-69
2023/03/12 06:19:44;;;;;;;9.93;2.28;;;;;;;;;;5032364;28;20082;-69
2023/03/12 06:22:10;;;;;;;13.68;2.47;;;;;;;;;;5032151;28;20055;-69
2023/03/12 06:24:36;;;;;;;13.10;2.67;;;;;;;;;;5032543;28;20392;-69
2023/03/12 06:27:03;;;;;;;11.43;2.65;;;;;;;;;;5032484;28;20032;-70
2023/03/12 06:29:29;;;;;;;8.32;2.10;;;;;;;;;;5032197;28;20067;-70
2023/03/12 06:31:55;;;;;;;11.00;2.63;;;;;;;;;;5032418;28;20029;-69
2023/03/12 06:34:21;;;;;;;11.73;2.40;;;;;;;;;;5032310;28;20025;-69
2023/03/12 06:36:48;;;;;;;9.90;1.85;;;;;;;;;;5032407;28;20036;-69
2023/03/12 06:39:14;;;;;;;9.57;2.20;;;;;;;;;;5032361;28;20017;-70
2023/03/12 06:41:41;;;;;;;11.90;2.05;;;;;;;;;;5032314;28;20018;-69
2023/03/12 06:44:07;;;;;;;11.48;2.78;;;;;;;;;;5031991;28;20486;-69
2023/03/12 06:46:33;;;;;;;8.88;2.20;;;;;;;;;;5032425;28;20040;-70
2023/03/12 06:48:59;;;;;;;11.25;3.35;;;;;;;;;;5031624;28;20075;-69
2023/03/12 06:51:26;;;;;;;10.85;2.90;;;;;;;;;;5030837;28;20036;-69
2023/03/12 06:53:52;;;;;;;13.98;3.00;;;;;;;;;;5032057;28;20042;-70
2023/03/12 06:56:19;;;;;;;12.93;2.30;;;;;;;;;;5032201;28;20032;-70
2023/03/12 06:58:45;;;;;;;11.68;2.50;;;;;;;;;;5031952;28;20034;-69
2023/03/12 07:01:11;;;;;;;12.55;2.45;;;;;;;;;;5032254;28;20079;-69
2023/03/12 07:03:37;;;;;;;13.60;2.78;;;;;;;;;;5034493;28;20025;-69
2023/03/12 07:06:04;;;;;;;20.42;3.72;;;;;;;;;;5035915;28;20026;-70
2023/03/12 07:08:30;;;;;;;18.85;2.50;;;;;;;;;;5035522;28;20025;-69
2023/03/12 07:10:59;;;;;;;14.05;2.75;;;;;;;;;;5035912;28;20032;-69
2023/03/12 07:13:25;;;;;;;14.60;3.00;;;;;;;;;;5035343;28;20059;-69
2023/03/12 07:15:51;;;;;;;14.32;3.28;;;;;;;;;;5035890;28;20025;-70
2023/03/12 07:18:18;;;;;;;14.50;3.47;;;;;;;;;;5035319;28;20035;-70
2023/03/12 07:20:46;;;;;;;14.93;3.42;;;;;;;;;;5036168;28;20021;-70
2023/03/12 07:23:12;;;;;;;10.02;3.00;;;;;;;;;;5035786;28;20024;-70
2023/03/12 07:25:39;;;;;;;14.43;3.58;;;;;;;;;;5035620;28;20032;-69
2023/03/12 07:28:07;;;;;;;10.85;2.58;;;;;;;;;;5035524;28;20035;-69
2023/03/12 07:30:33;;;;;;;16.85;2.78;;;;;;;;;;5035542;28;20028;-69
2023/03/12 07:33:02;;;;;;;10.52;2.42;;;;;;;;;;5035126;28;20036;-70
2023/03/12 07:35:29;;;;;;;11.45;3.22;;;;;;;;;;5035568;28;20024;-69
2023/03/12 07:37:56;;;;;;;17.48;2.50;;;;;;;;;;5035651;28;20030;-70
2023/03/12 07:40:23;;;;;;;11.30;2.42;;;;;;;;;;5035319;28;20036;-69
2023/03/12 07:42:52;;;;;;;12.55;2.33;;;;;;;;;;5035401;28;20036;-70
2023/03/12 07:45:18;;;;;;;15.88;2.90;;;;;;;;;;5035490;28;20505;-70
2023/03/12 07:47:45;;;;;;;12.43;2.33;;;;;;;;;;5035023;28;20025;-70
2023/03/12 07:50:12;;;;;;;14.35;2.40;;;;;;;;;;5035243;28;20013;-69
2023/03/12 07:52:38;;;;;;;13.40;2.10;;;;;;;;;;5035229;28;20029;-69
2023/03/12 07:55:04;;;;;;;15.50;2.38;;;;;;;;;;5035472;28;20049;-70
2023/03/12 07:57:31;;;;;;;12.55;2.10;;;;;;;;;;5035353;28;20031;-69
2023/03/12 07:59:57;;;;;;;13.40;1.77;;;;;;;;;;5034963;28;20119;-70
2023/03/12 08:02:23;;;;;;;11.98;2.70;;;;;;;;;;5034566;28;20408;-69
2023/03/12 08:04:50;;;;;;;10.23;2.47;;;;;;;;;;5034958;28;20030;-70
2023/03/12 08:07:16;;;;;;;14.88;2.35;;;;;;;;;;5035191;28;20029;-69
2023/03/12 08:09:42;;;;;;;11.45;1.67;;;;;;;;;;5034807;28;20043;-69
2023/03/12 08:12:09;;;;;;;9.95;1.45;;;;;;;;;;5034914;28;20040;-69
2023/03/12 08:14:35;;;;;;;10.82;2.45;;;;;;;;;;5033997;28;20021;-69
2023/03/12 08:17:01;;;;;;;10.60;2.50;;;;;;;;;;5034337;28;20386;-69
2023/03/12 08:19:28;;;;;;;7.15;1.83;;;;;;;;;;5034938;28;20051;-69
2023/03/12 08:21:54;;;;;;;7.82;1.23;;;;;;;;;;5034702;28;20027;-70
2023/03/12 08:24:21;;;;;;;9.05;1.58;;;;;;;;;;5034600;28;20028;-69
2023/03/12 08:26:47;;;;;;;6.38;1.42;;;;;;;;;;5034416;28;20029;-69
2023/03/12 08:29:14;;;;;;;8.10;1.60;;;;;;;;;;5034785;28;20033;-69
2023/03/12 08:31:40;;;;;;;9.02;1.58;;;;;;;;;;5034184;28;20477;-70
2023/03/12 08:34:07;;;;;;;7.22;1.38;;;;;;;;;;5034303;28;20039;-70
2023/03/12 08:36:34;;;;;;;8.30;1.63;;;;;;;;;;5034513;28;20488;-69
2023/03/12 08:39:01;;;;;;;7.60;1.42;;;;;;;;;;5034164;28;20029;-69
2023/03/12 08:41:28;;;;;;;4.93;1.25;;;;;;;;;;5034195;28;20024;-69
2023/03/12 08:43:55;;;;;;;5.25;1.60;;;;;;;;;;5034276;28;20459;-70
2023/03/12 08:46:21;;;;;;;6.45;1.05;;;;;;;;;;5033711;28;20032;-69
2023/03/12 08:48:48;;;;;;;5.63;1.05;;;;;;;;;;5033954;28;20086;-70
2023/03/12 08:51:14;;;;;;;5.25;1.70;;;;;;;;;;5034149;28;20092;-70
2023/03/12 08:53:40;;;;;;;7.35;1.48;;;;;;;;;;5033959;28;20037;-69
2023/03/12 08:56:07;;;;;;;6.00;1.35;;;;;;;;;;5033916;28;20018;-70
2023/03/12 08:58:33;;;;;;;5.35;1.88;;;;;;;;;;5034199;28;20082;-69
2023/03/12 09:00:59;;;;;;;3.55;1.20;;;;;;;;;;5033489;28;20017;-69
2023/03/12 09:03:26;;;;;;;5.30;1.55;;;;;;;;;;5033905;28;20477;-69
2023/03/12 09:06:02;;;;;;;5.78;1.50;;;;;;;;;;5033802;28;20079;-69
2023/03/12 09:08:28;;;;;;;5.10;1.65;;;;;;;;;;5033724;28;20028;-70
2023/03/12 09:10:54;;;;;;;7.05;1.92;;;;;;;;;;5033890;28;20022;-69
2023/03/12 09:13:21;;;;;;;4.72;1.50;;;;;;;;;;5033666;28;20033;-70
2023/03/12 09:15:47;;;;;;;4.00;1.88;;;;;;;;;;5033229;28;20019;-70
2023/03/12 09:18:13;;;;;;;5.82;1.55;;;;;;;;;;5033471;28;20083;-70
2023/03/12 09:20:41;;;;;;;6.10;1.38;;;;;;;;;;5033825;28;20030;-69
2023/03/12 09:23:08;;;;;;;3.03;1.10;;;;;;;;;;5034184;28;20025;-70
2023/03/12 09:25:34;;;;;;;2.88;1.00;;;;;;;;;;5032702;28;20021;-69
2023/03/12 09:28:01;;;;;;;4.03;0.70;;;;;;;;;;5032910;28;20482;-70
2023/03/12 09:30:29;;;;;;;3.25;1.13;;;;;;;;;;5033142;28;20027;-70
2023/03/12 09:32:55;;;;;;;8.20;1.50;;;;;;;;;;5033311;28;20029;-70
2023/03/12 09:35:21;;;;;;;2.08;1.02;;;;;;;;;;5033447;28;20022;-70
2023/03/12 09:37:49;;;;;;;2.47;0.70;;;;;;;;;;5033144;28;20470;-70
2023/03/12 09:40:17;;;;;;;3.17;1.00;;;;;;;;;;5033011;28;20028;-70
2023/03/12 09:42:47;;;;;;;3.90;0.90;;;;;;;;;;5032890;28;20447;-69
2023/03/12 09:45:16;;;;;;;3.20;0.80;;;;;;;;;;5033095;28;20056;-69
2023/03/12 09:47:47;;;;;;;3.25;1.05;;;;;;;;;;5033207;28;20059;-70
2023/03/12 09:50:38;;;;;;;4.07;1.08;;;;;;;;;;5033037;28;20032;-69
2023/03/12 09:53:05;;;;;;;2.67;0.80;;;;;;;;;;5032921;28;20601;-69
2023/03/12 09:55:35;;;;;;;3.22;0.95;;;;;;;;;;5033160;28;20014;-69
2023/03/12 09:58:01;;;;;;;1.52;0.73;;;;;;;;;;5032464;28;20211;-70
2023/03/12 10:00:32;;;;;;;1.70;0.50;;;;;;;;;;5032862;28;20029;-70
2023/03/12 10:03:04;;;;;;;3.95;0.88;;;;;;;;;;5032561;28;20017;-70
2023/03/12 10:05:49;;;;;;;2.40;0.65;;;;;;;;;;5032949;28;20041;-70
2023/03/12 10:08:36;;;;;;;1.35;0.70;;;;;;;;;;5032827;28;20029;-69
2023/03/12 10:11:02;;;;;;;2.53;0.82;;;;;;;;;;5032574;28;20018;-69
2023/03/12 10:13:37;;;;;;;2.67;0.82;;;;;;;;;;5032078;28;20039;-70
2023/03/12 10:16:13;;;;;;;0.88;0.50;;;;;;;;;;5032504;28;20025;-70
2023/03/12 10:18:55;;;;;;;1.88;0.60;;;;;;;;;;5032420;28;20039;-70
2023/03/12 10:21:37;;;;;;;1.13;0.57;;;;;;;;;;5032532;28;20025;-69
2023/03/12 10:24:03;;;;;;;2.85;0.80;;;;;;;;;;5032629;28;20030;-70
2023/03/12 10:26:37;;;;;;;2.72;1.05;;;;;;;;;;5032090;28;20025;-69
2023/03/12 10:29:06;;;;;;;1.05;0.70;;;;;;;;;;5032233;28;20574;-70
2023/03/12 10:31:35;;;;;;;1.67;0.70;;;;;;;;;;5032493;28;20029;-69
2023/03/12 10:34:02;;;;;;;4.05;0.90;;;;;;;;;;5032157;28;20037;-69
2023/03/12 10:36:39;;;;;;;1.70;0.65;;;;;;;;;;5031419;28;20026;-70
2023/03/12 10:39:10;;;;;;;4.10;0.50;;;;;;;;;;5031615;28;20025;-70
2023/03/12 10:41:37;;;;;;;2.65;0.90;;;;;;;;;;5031807;28;20026;-70
2023/03/12 10:44:07;;;;;;;2.10;0.68;;;;;;;;;;5032004;28;20509;-70
2023/03/12 10:46:36;;;;;;;3.20;0.50;;;;;;;;;;5032449;28;20037;-70
2023/03/12 10:49:20;;;;;;;1.85;0.50;;;;;;;;;;5032046;28;20025;-70
2023/03/12 10:51:53;;;;;;;1.55;0.70;;;;;;;;;;5032129;28;20034;-70
2023/03/12 10:54:26;;;;;;;2.40;0.73;;;;;;;;;;5031758;28;20434;-70
2023/03/12 10:56:53;;;;;;;1.42;0.70;;;;;;;;;;5031905;28;20029;-70
2023/03/12 10:59:20;;;;;;;1.50;1.20;;;;;;;;;;5032027;28;20039;-70
2023/03/12 11:01:49;;;;;;;1.50;0.80;;;;;;;;;;5032138;28;20026;-70
2023/03/12 11:04:26;;;;;;;9.60;0.77;;;;;;;;;;5031860;28;20087;-70
2023/03/12 11:07:11;;;;;;;2.70;0.40;;;;;;;;;;5031948;28;20025;-70
2023/03/12 11:09:38;;;;;;;0.82;0.50;;;;;;;;;;5032118;28;20028;-70
2023/03/12 11:12:21;;;;;;;0.63;0.38;;;;;;;;;;5031433;28;20490;-70
2023/03/12 11:14:48;;;;;;;0.82;0.40;;;;;;;;;;5031757;28;20029;-69
2023/03/12 11:17:22;;;;;;;2.45;0.68;;;;;;;;;;5032020;28;20474;-68
2023/03/12 11:19:48;;;;;;;1.02;0.40;;;;;;;;;;5031783;28;20050;-70
2023/03/12 11:22:26;;;;;;;0.68;0.47;;;;;;;;;;5031788;28;20075;-70
2023/03/12 11:24:57;;;;;;;0.40;0.40;;;;;;;;;;5031387;28;20018;-69
2023/03/12 11:27:26;;;;;;;2.10;0.90;;;;;;;;;;5031701;28;20029;-68
2023/03/12 11:29:53;;;;;;;2.67;0.60;;;;;;;;;;5031716;28;20048;-68
2023/03/12 11:32:22;;;;;;;1.52;0.60;;;;;;;;;;5031580;28;20025;-68
2023/03/12 11:34:49;;;;;;;1.10;0.50;;;;;;;;;;5031828;28;20037;-68
2023/03/12 11:37:28;;;;;;;1.92;0.50;;;;;;;;;;5031846;28;20400;-68
2023/03/12 11:39:57;;;;;;;2.33;0.73;;;;;;;;;;5031550;28;20029;-68
2023/03/12 11:42:36;;;;;;;4.35;0.88;;;;;;;;;;5031613;28;20021;-68
2023/03/12 11:45:13;;;;;;;1.50;0.90;;;;;;;;;;5031393;28;20050;-68
2023/03/12 11:47:58;;;;;;;1.75;0.90;;;;;;;;;;5031727;28;20018;-68
2023/03/12 11:50:40;;;;;;;1.90;0.85;;;;;;;;;;5033728;28;20029;-69
2023/03/12 11:53:32;;;;;;;1.23;0.80;;;;;;;;;;5035255;28;20046;-70
2023/03/12 11:56:08;;;;;;;2.70;0.90;;;;;;;;;;5034413;28;20037;-69
2023/03/12 11:58:37;;;;;;;1.42;0.75;;;;;;;;;;5035026;28;20035;-70
2023/03/12 12:01:12;;;;;;;1.88;0.75;;;;;;;;;;5034935;28;20029;-70
2023/03/12 12:03:45;;;;;;;2.90;0.70;;;;;;;;;;5035193;28;20032;-70
2023/03/12 12:06:23;;;;;;;1.40;0.65;;;;;;;;;;5035243;28;20071;-70
2023/03/12 12:08:49;;;;;;;4.45;1.10;;;;;;;;;;5034612;28;20424;-70
2023/03/12 12:11:40;;;;;;;1.85;0.70;;;;;;;;;;5035263;28;20028;-70
2023/03/12 12:14:10;;;;;;;2.45;0.82;;;;;;;;;;5034652;28;20042;-70
2023/03/12 12:16:46;;;;;;;1.80;1.00;;;;;;;;;;5034855;28;20025;-70
2023/03/12 12:19:12;;;;;;;1.40;0.70;;;;;;;;;;5034673;28;20036;-69
2023/03/12 12:21:57;;;;;;;1.55;0.82;;;;;;;;;;5034794;28;20021;-70
2023/03/12 12:24:37;;;;;;;1.02;0.60;;;;;;;;;;5034551;28;20112;-70
2023/03/12 12:27:09;;;;;;;3.42;1.00;;;;;;;;;;5034573;28;20540;-69
2023/03/12 12:29:59;;;;;;;2.15;0.93;;;;;;;;;;5034696;28;20025;-70
2023/03/12 12:32:48;;;;;;;1.20;0.80;;;;;;;;;;5031384;28;20401;-70
2023/03/12 12:35:23;;;;;;;0.98;0.70;;;;;;;;;;5031810;28;20032;-69
2023/03/12 12:38:08;;;;;;;2.55;0.40;;;;;;;;;;5034285;28;20473;-70
2023/03/12 12:40:54;;;;;;;2.28;0.57;;;;;;;;;;5034270;28;20037;-70
2023/03/12 12:43:31;;;;;;;1.17;0.60;;;;;;;;;;5034333;28;20044;-70
2023/03/12 12:46:00;;;;;;;1.48;0.47;;;;;;;;;;5034294;28;20033;-70
2023/03/12 12:48:28;;;;;;;2.42;0.82;;;;;;;;;;5034197;28;20026;-70
2023/03/12 12:50:58;;;;;;;1.63;0.60;;;;;;;;;;5034066;28;20489;-69
2023/03/12 12:53:25;;;;;;;0.90;0.57;;;;;;;;;;5033664;28;20090;-70
2023/03/12 12:55:57;;;;;;;1.42;0.60;;;;;;;;;;5034086;28;20032;-70
2023/03/12 12:58:36;;;;;;;0.82;0.70;;;;;;;;;;5032648;28;20033;-70
2023/03/12 13:01:02;;;;;;;1.02;0.60;;;;;;;;;;5033627;28;20087;-70
2023/03/12 13:03:29;;;;;;;1.45;0.68;;;;;;;;;;5034069;28;20018;-69
2023/03/12 13:06:01;;;;;;;1.20;0.85;;;;;;;;;;5033841;28;20047;-69
2023/03/12 13:08:49;;;;;;;1.38;0.90;;;;;;;;;;5033966;28;20044;-70
2023/03/12 13:11:15;;;;;;;2.05;0.85;;;;;;;;;;5030113;28;20079;-70
2023/03/12 13:13:45;;;;;;;0.98;0.60;;;;;;;;;;5033598;28;20041;-70
2023/03/12 13:16:27;;;;;;;2.40;0.68;;;;;;;;;;5033638;28;20010;-70
2023/03/12 13:19:02;;;;;;;1.70;0.80;;;;;;;;;;5033511;28;20033;-70
2023/03/12 13:21:35;;;;;;;1.30;0.77;;;;;;;;;;5033371;28;20032;-69
2023/03/12 13:24:04;;;;;;;3.35;0.80;;;;;;;;;;5033702;28;20025;-70
2023/03/12 13:26:50;;;;;;;1.77;0.70;;;;;;;;;;5033699;28;20022;-70
2023/03/12 13:29:20;;;;;;;0.82;0.50;;;;;;;;;;5033531;28;20025;-70
2023/03/12 13:31:46;;;;;;;0.95;0.68;;;;;;;;;;5033436;28;20036;-70
2023/03/12 13:34:18;;;;;;;1.90;1.10;;;;;;;;;;5033177;28;20037;-70
2023/03/12 13:36:47;;;;;;;5.22;0.60;;;;;;;;;;5033122;28;20043;-70
2023/03/12 13:39:16;;;;;;;1.90;0.55;;;;;;;;;;5033063;28;20473;-69
2023/03/12 13:41:45;;;;;;;1.75;0.65;;;;;;;;;;5033078;28;20044;-70
2023/03/12 13:44:33;;;;;;;0.90;0.60;;;;;;;;;;5032994;28;20138;-70
2023/03/12 13:47:02;;;;;;;2.08;0.60;;;;;;;;;;5033156;28;20401;-70
2023/03/12 13:49:36;;;;;;;0.82;0.60;;;;;;;;;;5032516;28;20029;-70
2023/03/12 13:52:23;;;;;;;1.48;0.40;;;;;;;;;;5033146;28;20038;-70
2023/03/12 13:54:58;;;;;;;0.60;0.47;;;;;;;;;;5033160;28;20059;-70
2023/03/12 13:57:28;;;;;;;1.60;0.70;;;;;;;;;;5032735;28;20017;-70
2023/03/12 13:59:56;;;;;;;1.48;0.73;;;;;;;;;;5032963;28;20478;-70
2023/03/12 14:02:24;;;;;;;1.55;0.50;;;;;;;;;;5033271;28;20036;-69
2023/03/12 14:04:51;;;;;;;1.10;0.52;;;;;;;;;;5032277;28;20489;-70
2023/03/12 14:07:33;;;;;;;2.75;0.70;;;;;;;;;;5032930;28;20033;-70
2023/03/12 14:10:09;;;;;;;2.58;0.40;;;;;;;;;;5032645;28;20032;-70
2023/03/12 14:12:42;;;;;;;2.10;0.43;;;;;;;;;;5032098;28;20033;-69
2023/03/12 14:15:13;;;;;;;1.48;0.43;;;;;;;;;;5032518;28;20025;-70
2023/03/12 14:17:40;;;;;;;1.80;0.60;;;;;;;;;;5032496;28;20025;-70
2023/03/12 14:20:13;;;;;;;1.05;0.55;;;;;;;;;;5032027;28;20037;-70
2023/03/12 14:22:40;;;;;;;2.08;0.73;;;;;;;;;;5032541;28;20026;-70
2023/03/12 14:25:19;;;;;;;1.33;0.65;;;;;;;;;;5032348;28;20039;-69
2023/03/12 14:27:46;;;;;;;1.85;0.80;;;;;;;;;;5032564;28;20017;-69
2023/03/12 14:30:19;;;;;;;0.90;0.60;;;;;;;;;;5032313;28;20490;-69
2023/03/12 14:32:49;;;;;;;1.80;0.60;;;;;;;;;;5032620;28;20025;-69
2023/03/12 14:35:19;;;;;;;1.05;0.52;;;;;;;;;;5032084;28;20375;-70
2023/03/12 14:37:48;;;;;;;0.65;0.50;;;;;;;;;;5032248;28;20030;-69
2023/03/12 14:40:20;;;;;;;1.48;0.50;;;;;;;;;;5032076;28;20067;-70
2023/03/12 14:42:46;;;;;;;1.60;0.60;;;;;;;;;;5032234;28;20021;-69
2023/03/12 14:45:14;;;;;;;1.02;0.60;;;;;;;;;;5032222;28;20041;-70
2023/03/12 14:47:42;;;;;;;0.73;0.50;;;;;;;;;;5031612;28;20436;-70
2023/03/12 14:50:22;;;;;;;1.90;1.27;;;;;;;;;;5031990;28;20029;-70